Chisolm, Alabama
Current Conditions -  °F | °C
As of 10:58 AM on Saturday 25 Oct 2014 (Local Time) from KMXF Reporting Station
Clear Clear  
Wind Chill: 70°   Ceiling: Unl
Heat Index: 70°   Visibility: 10mi
Dew Point: 51°   Wind: 5mph
Humidity: 50%   Direction: 340°NNW
Pressure: 30.11"   Gusts: NA
Location:  32.4418°N, 86.254°W
Report Text: KMXF 251558Z AUTO 34004KT 10SM CLR 21/10 A3011 RMK AO2 SLP198 T02110103
Loading
Personal Weather Stations






























Interactive Weather Map
Tropical Storm Tracking
New forecast layout! Learn more

10-Day Weather Forecast

Advertisements
Track Severe Weather on mobile